createdAt,value
2023-04-05T00:01:35.772Z,9.15
2023-04-05T00:04:09.306Z,7.38
2023-04-05T00:06:42.832Z,5.13
2023-04-05T00:09:13.375Z,6.30
2023-04-05T00:11:43.944Z,4.80
2023-04-05T00:14:14.530Z,4.03
2023-04-05T00:16:47.452Z,3.80
2023-04-05T00:19:18.181Z,3.50
2023-04-05T00:21:51.290Z,3.20
2023-04-05T00:27:00.863Z,3.05
2023-04-05T00:29:31.703Z,2.97
2023-04-05T00:32:02.374Z,2.95
2023-04-05T00:34:34.173Z,2.38
2023-04-05T00:37:04.609Z,2.47
2023-04-05T00:39:35.065Z,1.92
2023-04-05T00:42:06.324Z,2.03
2023-04-05T00:44:37.319Z,2.00
2023-04-05T00:47:11.992Z,2.03
2023-04-05T00:49:43.990Z,2.13
2023-04-05T00:52:16.962Z,2.40
2023-04-05T00:54:52.469Z,1.98
2023-04-05T00:57:23.494Z,2.38
2023-04-05T00:59:56.074Z,2.20
2023-04-05T01:02:36.622Z,1.90
2023-04-05T01:05:40.626Z,1.98
2023-04-05T01:10:59.356Z,1.90
2023-04-05T01:13:32.448Z,2.55
2023-04-05T01:16:03.056Z,1.80
2023-04-05T01:18:34.498Z,1.90
2023-04-05T01:21:31.198Z,2.00
2023-04-05T01:24:28.897Z,2.40
2023-04-05T01:27:03.924Z,1.90
2023-04-05T01:29:51.815Z,1.75
2023-04-05T01:32:49.381Z,1.90
2023-04-05T01:35:26.314Z,1.92
2023-04-05T01:38:04.894Z,1.80
2023-04-05T01:40:39.058Z,2.00
2023-04-05T01:43:22.474Z,2.13
2023-04-05T01:45:56.956Z,2.10
2023-04-05T01:48:28.226Z,2.05
2023-04-05T01:51:03.201Z,1.63
2023-04-05T01:53:43.549Z,1.40
2023-04-05T01:56:20.886Z,1.45
2023-04-05T01:58:52.472Z,1.15
2023-04-05T02:01:23.832Z,1.40
2023-04-05T02:03:57.709Z,1.25
2023-04-05T02:06:31.999Z,1.20
2023-04-05T02:09:04.859Z,1.70
2023-04-05T02:11:38.037Z,1.33
2023-04-05T02:14:08.906Z,1.50
2023-04-05T02:16:44.750Z,1.63
2023-04-05T02:19:17.419Z,1.48
2023-04-05T02:21:47.893Z,1.40
2023-04-05T02:24:18.549Z,1.63
2023-04-05T02:26:50.223Z,1.55
2023-04-05T02:29:20.622Z,1.70
2023-04-05T02:31:55.302Z,1.60
2023-04-05T02:34:25.862Z,1.30
2023-04-05T02:36:56.509Z,1.27
2023-04-05T02:39:28.639Z,1.20
2023-04-05T02:42:01.482Z,1.00
2023-04-05T02:44:35.304Z,1.05
2023-04-05T02:47:07.583Z,1.40
2023-04-05T02:49:40.395Z,1.10
2023-04-05T02:52:12.557Z,1.17
2023-04-05T02:54:48.599Z,1.17
2023-04-05T02:57:25.759Z,0.90
2023-04-05T03:00:03.765Z,0.80
2023-04-05T03:02:36.533Z,0.70
2023-04-05T03:05:09.725Z,1.00
2023-04-05T03:07:44.680Z,0.90
2023-04-05T03:10:20.562Z,0.95
2023-04-05T03:12:56.008Z,0.80
2023-04-05T03:15:30.150Z,0.70
2023-04-05T03:18:02.801Z,1.02
2023-04-05T03:20:36.126Z,0.90
2023-04-05T03:23:10.991Z,0.98
2023-04-05T03:25:43.164Z,0.88
2023-04-05T03:28:14.979Z,1.00
2023-04-05T03:30:49.125Z,0.80
2023-04-05T03:33:23.105Z,0.90
2023-04-05T03:38:25.902Z,0.88
2023-04-05T03:41:12.178Z,0.93
2023-04-05T03:43:43.060Z,0.75
2023-04-05T03:46:13.574Z,0.93
2023-04-05T03:48:44.296Z,0.80
2023-04-05T03:51:14.855Z,0.70
2023-04-05T03:53:45.257Z,1.02
2023-04-05T03:56:16.736Z,0.65
2023-04-05T03:58:51.942Z,0.70
2023-04-05T04:01:30.775Z,0.80
2023-04-05T04:04:02.211Z,0.70
2023-04-05T04:06:33.086Z,0.70
2023-04-05T04:09:03.985Z,0.85
2023-04-05T04:11:35.259Z,0.75
2023-04-05T04:14:08.411Z,0.70
2023-04-05T04:17:11.294Z,0.70
2023-04-05T04:20:13.241Z,0.70
2023-04-05T04:23:11.553Z,0.80
2023-04-05T04:25:57.451Z,0.70
2023-04-05T04:28:57.332Z,0.70
2023-04-05T04:31:52.076Z,0.70
2023-04-05T04:37:34.926Z,0.57
2023-04-05T04:40:42.307Z,0.40
2023-04-05T04:43:38.837Z,0.93
2023-04-05T04:46:28.711Z,1.10
2023-04-05T04:49:15.722Z,2.00
2023-04-05T04:51:51.169Z,1.70
2023-04-05T04:54:25.649Z,2.03
2023-04-05T04:56:56.235Z,1.45
2023-04-05T04:59:27.637Z,1.40
2023-04-05T05:01:58.819Z,1.88
2023-04-05T05:04:29.570Z,1.35
2023-04-05T05:07:00.043Z,1.52
2023-04-05T05:09:30.772Z,1.20
2023-04-05T05:12:03.267Z,1.00
2023-04-05T05:14:33.688Z,2.42
2023-04-05T05:17:04.337Z,3.78
2023-04-05T05:19:34.843Z,3.00
2023-04-05T05:22:05.460Z,1.60
2023-04-05T05:24:36.039Z,2.05
2023-04-05T05:27:06.988Z,2.20
2023-04-05T05:29:37.574Z,2.00
2023-04-05T05:32:09.033Z,2.42
2023-04-05T05:34:40.417Z,4.60
2023-04-05T05:37:11.290Z,1.90
2023-04-05T05:39:41.862Z,2.25
2023-04-05T05:42:13.636Z,1.98
2023-04-05T05:44:44.024Z,2.65
2023-04-05T05:47:14.889Z,7.47
2023-04-05T05:49:45.537Z,5.22
2023-04-05T05:52:16.338Z,8.32
2023-04-05T05:54:47.111Z,6.15
2023-04-05T05:57:18.209Z,8.52
2023-04-05T05:59:51.708Z,9.23
2023-04-05T06:02:42.887Z,7.53
2023-04-05T06:05:13.848Z,5.93
2023-04-05T06:07:44.464Z,6.80
2023-04-05T06:10:15.158Z,4.70
2023-04-05T06:12:48.713Z,5.65
2023-04-05T06:15:19.360Z,5.30
2023-04-05T06:17:49.995Z,4.50
2023-04-05T06:20:23.213Z,4.85
2023-04-05T06:22:53.863Z,4.50
2023-04-05T06:25:24.322Z,4.45
2023-04-05T06:27:54.739Z,4.10
2023-04-05T06:30:25.205Z,4.38
2023-04-05T06:32:55.981Z,3.50
2023-04-05T06:35:29.416Z,3.60
2023-04-05T06:37:59.953Z,4.63
2023-04-05T06:40:30.608Z,4.53
2023-04-05T06:43:01.164Z,3.67
2023-04-05T06:45:34.633Z,4.88
2023-04-05T06:48:05.630Z,5.18
2023-04-05T06:50:36.156Z,4.35
2023-04-05T06:53:06.589Z,4.90
2023-04-05T06:55:37.112Z,4.38
2023-04-05T06:58:10.710Z,4.25
2023-04-05T07:00:41.489Z,4.05
2023-04-05T07:03:12.402Z,4.80
2023-04-05T07:05:42.736Z,4.05
2023-04-05T07:08:13.587Z,3.85
2023-04-05T07:10:44.064Z,4.47
2023-04-05T07:13:14.509Z,4.55
2023-04-05T07:15:45.623Z,3.53
2023-04-05T07:18:19.107Z,4.13
2023-04-05T07:20:51.091Z,3.90
2023-04-05T07:23:21.847Z,4.22
2023-04-05T07:25:54.098Z,4.25
2023-04-05T07:28:24.796Z,4.97
2023-04-05T07:30:56.102Z,4.47
2023-04-05T07:33:26.551Z,4.88
2023-04-05T07:35:58.441Z,4.15
2023-04-05T07:38:31.254Z,5.32
2023-04-05T07:41:01.892Z,4.47
2023-04-05T07:43:34.902Z,4.00
2023-04-05T07:46:08.450Z,4.05
2023-04-05T07:48:38.840Z,3.88
2023-04-05T07:51:10.566Z,4.20
2023-04-05T07:53:41.115Z,4.63
2023-04-05T07:56:13.507Z,4.22
2023-04-05T07:58:44.552Z,4.45
2023-04-05T08:01:18.342Z,4.28
2023-04-05T08:03:49.241Z,3.58
2023-04-05T08:06:19.881Z,4.30
2023-04-05T08:08:51.168Z,4.50
2023-04-05T08:11:21.722Z,4.40
2023-04-05T08:13:52.525Z,4.65
2023-04-05T08:16:23.148Z,4.80
2023-04-05T08:18:54.721Z,4.55
2023-04-05T08:21:25.526Z,4.95
2023-04-05T08:23:56.140Z,5.40
2023-04-05T08:26:27.377Z,5.13
2023-04-05T08:28:57.769Z,5.75
2023-04-05T08:31:29.280Z,5.72
2023-04-05T08:34:00.142Z,6.57
2023-04-05T08:36:33.390Z,6.03
2023-04-05T08:39:04.160Z,6.00
2023-04-05T08:41:42.867Z,6.28
2023-04-05T08:44:15.086Z,6.78
2023-04-05T08:46:47.302Z,6.40
2023-04-05T08:49:18.218Z,6.60
2023-04-05T08:51:48.741Z,6.32
2023-04-05T08:54:19.788Z,6.28
2023-04-05T08:56:51.449Z,6.05
2023-04-05T08:59:22.980Z,7.30
2023-04-05T09:01:54.273Z,5.97
2023-04-05T09:04:26.168Z,7.30
2023-04-05T09:07:00.415Z,6.15
2023-04-05T09:09:37.932Z,8.90
2023-04-05T09:12:09.758Z,7.63
2023-04-05T09:14:41.075Z,7.45
2023-04-05T09:17:12.894Z,8.10
2023-04-05T09:19:45.151Z,7.20
2023-04-05T09:22:19.884Z,7.67
2023-04-05T09:24:51.410Z,7.93
2023-04-05T09:27:24.507Z,8.18
2023-04-05T09:29:59.721Z,7.38
2023-04-05T09:32:30.822Z,7.55
2023-04-05T09:35:07.305Z,8.32
2023-04-05T09:37:38.666Z,8.63
2023-04-05T09:40:11.839Z,7.82
2023-04-05T09:42:49.291Z,8.23
2023-04-05T09:45:20.642Z,7.72
2023-04-05T09:47:59.310Z,8.45
2023-04-05T09:50:30.698Z,9.13
2023-04-05T09:53:17.408Z,8.50
2023-04-05T09:55:51.091Z,8.52
2023-04-05T09:58:25.361Z,9.07
2023-04-05T10:01:06.551Z,8.30
2023-04-05T10:03:52.723Z,9.20
2023-04-05T10:06:23.588Z,9.00
2023-04-05T10:08:54.798Z,9.10
2023-04-05T10:11:26.566Z,8.48
2023-04-05T10:13:57.682Z,8.50
2023-04-05T10:16:31.204Z,10.15
2023-04-05T10:19:07.743Z,8.52
2023-04-05T10:21:43.832Z,9.45
2023-04-05T10:24:25.714Z,9.45
2023-04-05T10:27:12.323Z,8.90
2023-04-05T10:30:08.002Z,9.30
2023-04-05T10:33:06.027Z,9.38
2023-04-05T10:35:58.855Z,10.13
2023-04-05T10:38:31.531Z,9.43
2023-04-05T10:41:12.768Z,9.10
2023-04-05T10:43:44.217Z,10.60
2023-04-05T10:46:22.498Z,10.98
2023-04-05T10:48:56.093Z,9.48
2023-04-05T10:51:34.049Z,10.25
2023-04-05T10:54:05.497Z,9.55
2023-04-05T10:56:36.253Z,10.35
2023-04-05T10:59:07.481Z,10.30
2023-04-05T11:01:40.248Z,9.60
2023-04-05T11:04:15.701Z,9.48
2023-04-05T11:06:55.133Z,9.95
2023-04-05T11:09:28.358Z,10.15
2023-04-05T11:11:58.886Z,11.50
2023-04-05T11:14:43.421Z,10.55
2023-04-05T11:17:28.298Z,10.32
2023-04-05T11:20:13.462Z,10.82
2023-04-05T11:22:56.698Z,9.73
2023-04-05T11:25:27.652Z,10.75
2023-04-05T11:28:04.320Z,11.68
2023-04-05T11:30:53.480Z,9.80
2023-04-05T11:33:55.425Z,10.85
2023-04-05T11:36:34.085Z,10.77
2023-04-05T11:39:23.028Z,10.63
2023-04-05T11:42:05.808Z,10.18
2023-04-05T11:44:50.687Z,11.25
2023-04-05T11:47:25.071Z,10.73
2023-04-05T11:49:55.554Z,10.15
2023-04-05T11:52:26.266Z,10.60
2023-04-05T11:54:56.788Z,10.90
2023-04-05T11:57:27.541Z,10.25
2023-04-05T11:59:58.180Z,11.20
2023-04-05T12:02:28.541Z,11.30
2023-04-05T12:04:59.951Z,11.50
2023-04-05T12:07:34.003Z,11.68
2023-04-05T12:10:06.160Z,10.68
2023-04-05T12:12:41.324Z,12.43
2023-04-05T12:15:15.905Z,15.23
2023-04-05T12:17:51.901Z,11.77
2023-04-05T12:20:26.706Z,11.77
2023-04-05T12:22:58.736Z,11.65
2023-04-05T12:25:29.372Z,11.40
2023-04-05T12:28:07.531Z,12.07
2023-04-05T12:30:39.530Z,12.77
2023-04-05T12:33:13.731Z,13.30
2023-04-05T12:35:44.337Z,11.82
2023-04-05T12:38:18.991Z,11.80
2023-04-05T12:40:50.270Z,12.43
2023-04-05T12:43:23.961Z,11.75
2023-04-05T12:45:57.980Z,11.93
2023-04-05T12:48:28.473Z,11.82
2023-04-05T12:50:59.080Z,12.18
2023-04-05T12:53:30.229Z,12.65
2023-04-05T12:56:03.331Z,11.85
2023-04-05T12:58:37.806Z,12.10
2023-04-05T13:01:08.709Z,11.15
2023-04-05T13:03:39.258Z,12.52
2023-04-05T13:06:09.908Z,12.15
2023-04-05T13:08:40.329Z,11.60
2023-04-05T13:11:10.722Z,12.40
2023-04-05T13:13:41.174Z,12.18
2023-04-05T13:16:11.715Z,12.60
2023-04-05T13:18:42.297Z,12.30
2023-04-05T13:21:13.101Z,12.48
2023-04-05T13:23:44.394Z,12.65
2023-04-05T13:26:15.840Z,12.65
2023-04-05T13:28:46.254Z,12.23
2023-04-05T13:31:16.916Z,12.23
2023-04-05T13:33:47.423Z,11.73
2023-04-05T13:36:17.913Z,12.32
2023-04-05T13:38:48.325Z,12.13
2023-04-05T13:41:22.729Z,10.85
2023-04-05T13:43:53.472Z,12.88
2023-04-05T13:46:24.614Z,11.95
2023-04-05T13:48:55.095Z,11.73
2023-04-05T13:51:26.345Z,12.73
2023-04-05T13:53:56.849Z,12.05
2023-04-05T13:56:27.381Z,12.00
2023-04-05T13:58:57.881Z,10.80
2023-04-05T14:01:28.402Z,10.93
2023-04-05T14:03:58.916Z,11.30
2023-04-05T14:06:29.661Z,11.25
2023-04-05T14:09:00.547Z,11.20
2023-04-05T14:11:30.976Z,11.20
2023-04-05T14:14:02.677Z,11.27
2023-04-05T14:16:33.403Z,10.93
2023-04-05T14:19:04.553Z,10.98
2023-04-05T14:21:36.485Z,11.13
2023-04-05T14:24:07.218Z,10.77
2023-04-05T14:26:38.126Z,10.90
2023-04-05T14:29:08.569Z,10.35
2023-04-05T14:31:39.444Z,10.98
2023-04-05T14:34:09.890Z,10.48
2023-04-05T14:36:40.464Z,10.85
2023-04-05T14:39:10.895Z,10.10
2023-04-05T14:41:42.394Z,11.05
2023-04-05T14:44:12.773Z,10.70
2023-04-05T14:46:43.572Z,10.15
2023-04-05T14:49:13.755Z,10.13
2023-04-05T14:51:44.212Z,10.57
2023-04-05T14:54:14.708Z,11.13
2023-04-05T14:56:45.111Z,10.35
2023-04-05T14:59:16.405Z,10.57
2023-04-05T15:01:50.729Z,10.02
2023-04-05T15:04:21.425Z,9.50
2023-04-05T15:06:51.843Z,9.90
2023-04-05T15:09:22.415Z,9.93
2023-04-05T15:11:54.414Z,9.13
2023-04-05T15:14:31.714Z,9.52
2023-04-05T15:17:02.844Z,9.40
2023-04-05T15:19:33.232Z,9.32
2023-04-05T15:22:03.693Z,9.43
2023-04-05T15:24:35.042Z,9.23
2023-04-05T15:27:06.112Z,8.95
2023-04-05T15:29:36.764Z,9.23
2023-04-05T15:32:07.158Z,8.77
2023-04-05T15:34:37.564Z,9.15
2023-04-05T15:37:08.603Z,8.18
2023-04-05T15:39:39.275Z,8.27
2023-04-05T15:42:09.702Z,8.95
2023-04-05T15:44:40.014Z,8.73
2023-04-05T15:47:12.314Z,9.05
2023-04-05T15:49:42.675Z,7.93
2023-04-05T15:52:13.930Z,9.30
2023-04-05T15:54:45.891Z,7.32
2023-04-05T15:57:16.389Z,8.77
2023-04-05T15:59:46.813Z,8.23
2023-04-05T16:02:17.224Z,8.77
2023-04-05T16:04:47.712Z,8.65
2023-04-05T16:07:18.428Z,8.70
2023-04-05T16:09:48.901Z,8.02
2023-04-05T16:12:19.290Z,7.90
2023-04-05T16:14:49.677Z,8.13
2023-04-05T16:17:20.467Z,7.80
2023-04-05T16:19:51.168Z,8.52
2023-04-05T16:22:22.614Z,7.43
2023-04-05T16:24:53.052Z,8.05
2023-04-05T16:27:24.710Z,7.75
2023-04-05T16:29:55.456Z,7.30
2023-04-05T16:32:25.880Z,7.72
2023-04-05T16:34:56.431Z,7.35
2023-04-05T16:37:26.862Z,7.85
2023-04-05T16:39:57.460Z,7.82
2023-04-05T16:42:28.288Z,7.45
2023-04-05T16:44:59.436Z,7.53
2023-04-05T16:47:30.114Z,7.22
2023-04-05T16:50:00.955Z,7.65
2023-04-05T16:52:31.442Z,7.90
2023-04-05T16:55:02.721Z,7.18
2023-04-05T16:57:33.233Z,6.38
2023-04-05T17:00:03.634Z,6.60
2023-04-05T17:02:34.585Z,6.38
2023-04-05T17:05:05.621Z,6.47
2023-04-05T17:07:36.456Z,5.82
2023-04-05T17:10:06.877Z,6.03
2023-04-05T17:12:38.834Z,5.35
2023-04-05T17:15:10.507Z,5.40
2023-04-05T17:17:42.519Z,5.43
2023-04-05T17:20:13.698Z,5.78
2023-04-05T17:22:44.529Z,4.78
2023-04-05T17:25:14.882Z,4.88
2023-04-05T17:27:45.284Z,4.80
2023-04-05T17:30:16.478Z,5.22
2023-04-05T17:32:46.922Z,4.72
2023-04-05T17:35:17.579Z,4.68
2023-04-05T17:37:49.105Z,4.38
2023-04-05T17:40:20.110Z,4.07
2023-04-05T17:42:50.526Z,4.78
2023-04-05T17:45:21.363Z,3.90
2023-04-05T17:47:51.901Z,4.22
2023-04-05T17:50:24.764Z,4.07
2023-04-05T17:52:55.588Z,4.00
2023-04-05T17:55:26.348Z,4.00
2023-04-05T17:57:57.052Z,3.78
2023-04-05T18:00:27.660Z,3.70
2023-04-05T18:02:58.192Z,3.85
2023-04-05T18:05:29.615Z,3.63
2023-04-05T18:08:00.116Z,3.35
2023-04-05T18:10:30.426Z,3.40
2023-04-05T18:13:00.860Z,3.60
2023-04-05T18:15:31.915Z,3.53
2023-04-05T18:18:02.692Z,3.03
2023-04-05T18:20:33.624Z,3.20
2023-04-05T18:23:04.133Z,3.13
2023-04-05T18:25:35.608Z,3.22
2023-04-05T18:28:19.286Z,2.85
2023-04-05T18:30:54.261Z,2.88
2023-04-05T18:33:24.755Z,2.70
2023-04-05T18:35:55.394Z,2.60
2023-04-05T18:38:25.756Z,2.72
2023-04-05T18:41:06.191Z,2.63
2023-04-05T18:43:36.818Z,2.47
2023-04-05T18:46:07.091Z,2.67
2023-04-05T18:48:40.342Z,2.55
2023-04-05T18:51:10.729Z,2.45
2023-04-05T18:53:41.113Z,2.70
2023-04-05T18:56:11.829Z,2.47
2023-04-05T18:58:42.623Z,2.60
2023-04-05T19:01:16.273Z,2.55
2023-04-05T19:03:47.876Z,2.45
2023-04-05T19:06:19.357Z,2.60
2023-04-05T19:08:49.975Z,2.38
2023-04-05T19:11:20.956Z,2.40
2023-04-05T19:13:52.229Z,1.98
2023-04-05T19:16:22.700Z,2.35
2023-04-05T19:18:53.167Z,2.45
2023-04-05T19:21:23.705Z,2.20
2023-04-05T19:23:54.191Z,2.65
2023-04-05T19:26:24.649Z,2.40
2023-04-05T19:28:55.142Z,2.33
2023-04-05T19:31:25.538Z,2.33
2023-04-05T19:33:55.946Z,2.17
2023-04-05T19:36:26.595Z,1.90
2023-04-05T19:38:57.020Z,2.38
2023-04-05T19:41:27.631Z,2.33
2023-04-05T19:43:58.152Z,1.90
2023-04-05T19:46:32.447Z,1.88
2023-04-05T19:49:11.473Z,2.05
2023-04-05T19:51:43.764Z,2.10
2023-04-05T19:54:16.215Z,2.10
2023-04-05T19:56:47.013Z,2.10
2023-04-05T19:59:34.854Z,2.20
2023-04-05T20:02:21.340Z,1.95
2023-04-05T20:04:51.791Z,1.95
2023-04-05T20:07:22.583Z,1.80
2023-04-05T20:09:53.430Z,1.80
2023-04-05T20:12:24.142Z,2.33
2023-04-05T20:14:54.660Z,2.17
2023-04-05T20:17:29.556Z,2.00
2023-04-05T20:20:02.468Z,2.03
2023-04-05T20:22:34.767Z,2.10
2023-04-05T20:25:37.468Z,1.92
2023-04-05T20:28:29.866Z,1.70
2023-04-05T20:31:00.783Z,1.60
2023-04-05T20:33:43.798Z,2.22
2023-04-05T20:36:15.929Z,1.90
2023-04-05T20:38:47.768Z,1.80
2023-04-05T20:41:20.545Z,2.20
2023-04-05T20:43:50.981Z,1.88
2023-04-05T20:46:21.363Z,1.92
2023-04-05T20:48:52.612Z,1.88
2023-04-05T20:51:23.032Z,1.85
2023-04-05T20:53:54.068Z,2.03
2023-04-05T20:56:24.489Z,2.40
2023-04-05T20:58:56.234Z,2.50
2023-04-05T21:01:28.643Z,2.53
2023-04-05T21:03:59.394Z,2.60
2023-04-05T21:06:30.379Z,2.40
2023-04-05T21:09:00.810Z,3.15
2023-04-05T21:11:31.547Z,2.88
2023-04-05T21:14:02.231Z,2.63
2023-04-05T21:16:33.013Z,3.00
2023-04-05T21:19:03.380Z,3.58
2023-04-05T21:21:33.818Z,3.22
2023-04-05T21:24:04.828Z,3.95
2023-04-05T21:26:35.418Z,3.28
2023-04-05T21:29:06.230Z,3.80
2023-04-05T21:31:37.919Z,3.97
2023-04-05T21:34:08.459Z,3.55
2023-04-05T21:36:39.399Z,5.10
2023-04-05T21:39:10.016Z,4.03
2023-04-05T21:41:41.586Z,4.47
2023-04-05T21:44:12.114Z,4.68
2023-04-05T21:46:42.619Z,4.55
2023-04-05T21:49:13.007Z,4.85
2023-04-05T21:51:44.075Z,5.03
2023-04-05T21:54:14.526Z,4.63
2023-04-05T21:56:44.872Z,5.43
2023-04-05T21:59:15.294Z,5.53
2023-04-05T22:01:45.758Z,5.07
2023-04-05T22:04:16.282Z,6.43
2023-04-05T22:06:46.724Z,5.45
2023-04-05T22:09:17.339Z,5.85
2023-04-05T22:11:47.757Z,6.10
2023-04-05T22:14:18.503Z,5.85
2023-04-05T22:16:49.484Z,6.07
2023-04-05T22:19:20.106Z,6.68
2023-04-05T22:21:50.670Z,6.20
2023-04-05T22:24:21.158Z,5.40
2023-04-05T22:26:53.414Z,5.80
2023-04-05T22:29:23.912Z,6.93
2023-04-05T22:31:54.499Z,6.63
2023-04-05T22:34:24.992Z,6.95
2023-04-05T22:36:55.459Z,6.63
2023-04-05T22:39:26.358Z,6.88
2023-04-05T22:41:57.701Z,6.95
2023-04-05T22:44:28.198Z,6.95
2023-04-05T22:46:58.954Z,5.07
2023-04-05T22:49:29.482Z,4.50
2023-04-05T22:51:59.981Z,4.13
2023-04-05T22:54:30.435Z,4.47
2023-04-05T22:57:02.009Z,5.45
2023-04-05T22:59:32.501Z,4.88
2023-04-05T23:02:03.664Z,5.18
2023-04-05T23:04:34.381Z,5.53
2023-04-05T23:07:04.804Z,5.32
2023-04-05T23:09:35.714Z,5.50
2023-04-05T23:12:06.591Z,5.00
2023-04-05T23:14:36.929Z,6.38
2023-04-05T23:17:07.463Z,6.03
2023-04-05T23:19:38.623Z,7.93
2023-04-05T23:22:09.012Z,6.72
2023-04-05T23:24:39.951Z,9.05
2023-04-05T23:27:10.542Z,7.88
2023-04-05T23:29:41.043Z,8.40
2023-04-05T23:32:14.334Z,6.78
2023-04-05T23:34:44.753Z,7.35
2023-04-05T23:37:16.485Z,8.30
2023-04-05T23:39:47.116Z,10.23
2023-04-05T23:42:18.024Z,9.35
2023-04-05T23:44:48.489Z,9.45
2023-04-05T23:47:19.031Z,13.70
2023-04-05T23:49:49.587Z,15.40
2023-04-05T23:52:20.012Z,14.90
2023-04-05T23:54:50.408Z,14.15
2023-04-05T23:57:21.578Z,17.38
2023-04-05T23:59:53.798Z,17.85
